Latest Weather Observations for Avalon

IDV60901

Issued at 5:55 am EDT Saturday 25 October 2014 (issued every 10 minutes, with the page automatically refreshed every 10 minutes)

About weather observations | Map of Melbourne area stations | Latest observations for Melbourne area | Other Formats
Station Details ID: 087113 Name: AVALON AIRPORT Lat: -38.03 Lon: 144.48 Height: 10.6 m
Data from the previous 72 hours. | See also: Recent months at Avalon
Date/Time
EDT
Tmp

°C
App
Tmp
°C
Dew
Point
°C
Rel
Hum
%
Delta-T

°C
Wind Press
QNH
hPa
Press
MSL
hPa
Rain
since
9 am
mm
Dir
 
Spd
km/h
Gust
km/h
Spd
kts
Gust
kts
25/05:30am 14.0 12.3 9.8 76 2.2 W 9 11 5 6 1016.7 1016.7 0.0
25/05:00am 14.1 11.9 9.5 74 2.4 WSW 11 15 6 8 1016.4 1016.4 0.0
25/04:30am 14.3 11.8 9.7 74 2.4 WSW 13 19 7 10 1016.3 1016.3 0.0
25/04:00am 14.5 12.0 9.7 73 2.5 W 13 17 7 9 1016.3 1016.3 0.0
25/03:30am 14.6 11.7 9.8 73 2.5 W 15 20 8 11 1016.2 1016.2 0.0
25/03:00am 14.6 11.8 10.0 74 2.4 W 15 20 8 11 1016.2 1016.2 0.0
25/02:30am 14.7 12.0 10.5 76 2.2 WSW 15 20 8 11 1016.4 1016.4 0.0
25/02:00am 14.6 11.3 10.8 78 2.0 WSW 19 24 10 13 1016.7 1016.7 0.0
25/01:30am 14.6 11.6 10.8 78 2.0 WSW 17 22 9 12 1016.7 1016.7 0.0
25/01:00am 14.5 10.7 11.1 80 1.8 WSW 22 30 12 16 1016.9 1016.9 0.0
25/12:30am 15.0 11.8 11.4 79 1.9 W 19 24 10 13 1016.8 1016.8 0.0
25/12:00am 15.1 12.8 11.7 80 1.8 W 15 20 8 11 1016.6 1016.6 0.0
 
Date/Time
EDT
Tmp

°C
App
Tmp
°C
Dew
Point
°C
Rel
Hum
%
Delta-T

°C
Wind Press
QNH
hPa
Press
MSL
hPa
Rain
since
9 am
mm
Dir
 
Spd
km/h
Gust
km/h
Spd
kts
Gust
kts
24/11:30pm 15.0 11.7 11.6 80 1.8 W 20 28 11 15 1016.4 1016.4 0.0
24/11:00pm 14.5 12.2 11.6 83 1.6 W 15 20 8 11 1016.2 1016.2 0.0
24/10:30pm 15.3 13.2 12.4 83 1.6 W 15 19 8 10 1016.2 1016.2 0.0
24/10:00pm 14.8 13.6 12.8 88 1.1 WNW 11 17 6 9 1015.8 1015.8 0.0
24/09:30pm 14.2 15.0 12.6 90 0.9 SSE 0 0 0 0 1015.3 1015.3 0.0
24/09:00pm 14.5 13.7 12.9 90 0.9 S 9 11 5 6 1014.5 1014.5 0.0
24/08:30pm 14.9 13.0 13.1 89 1.0 SSW 15 17 8 9 1013.7 1013.7 0.0
24/08:23pm 15.1 13.7 13.3 89 1.0 S 13 20 7 11 1013.6 1013.6 0.0
24/08:00pm 15.8 13.8 14.0 89 1.0 S 17 24 9 13 1013.1 1013.1 0.0
24/07:30pm 15.9 13.5 14.3 90 0.9 S 20 24 11 13 1012.4 1012.4 0.0
24/07:26pm 15.9 13.1 14.3 90 0.9 S 22 32 12 17 1012.3 1012.3 0.0
24/07:00pm 16.9 13.6 14.0 83 1.6 S 24 28 13 15 1011.8 1011.8 0.0
24/06:30pm 19.3 16.4 13.9 71 3.1 S 22 28 12 15 1011.3 1011.3 0.0
24/06:00pm 21.4 19.0 14.3 64 4.1 S 20 26 11 14 1010.6 1010.6 0.0
24/05:30pm 22.9 19.9 14.7 60 4.9 S 24 30 13 16 1010.1 1010.1 0.0
24/05:00pm 24.6 20.4 14.7 54 5.9 S 30 35 16 19 1009.7 1009.7 0.0
24/04:47pm 26.1 22.2 13.2 44 7.5 SW 26 32 14 17 1009.5 1009.5 0.0
24/04:30pm 31.7 27.3 4.5 18 14.2 W 17 19 9 10 1009.3 1009.3 0.0
24/04:00pm 30.9 26.9 6.7 22 13.0 WSW 17 22 9 12 1009.2 1009.2 0.0
24/03:30pm 31.6 26.4 7.3 22 13.3 W 24 35 13 19 1009.4 1009.4 0.0
24/03:00pm 31.9 26.8 7.5 22 13.4 W 24 37 13 20 1009.7 1009.7 0.0
24/02:30pm 31.1 27.8 8.2 24 12.6 W 15 26 8 14 1009.9 1009.9 0.0
24/02:00pm 30.0 28.2 12.0 33 10.5 WSW 13 26 7 14 1010.2 1010.2 0.0
24/01:30pm 29.1 27.5 12.9 37 9.6 SSW 13 26 7 14 1010.5 1010.5 0.0
24/01:00pm 25.9 24.6 15.9 54 6.1 ESE 17 20 9 11 1010.4 1010.4 0.0
24/12:30pm 24.2 23.5 16.5 62 4.7 ESE 15 19 8 10 1010.8 1010.8 0.0
24/12:00pm 24.0 23.6 16.3 62 4.7 SE 13 19 7 10 1011.1 1011.1 0.0
24/11:30am 24.6 23.9 15.5 57 5.5 W 13 20 7 11 1011.5 1011.5 0.0
24/11:00am 22.2 22.5 15.1 64 4.2 W 7 15 4 8 1011.7 1011.7 0.0
24/10:30am 20.2 20.8 15.2 73 2.9 NW 6 11 3 6 1011.7 1011.7 0.0
24/10:18am 19.2 19.8 15.9 81 2.0 ENE 7 13 4 7 1011.7 1011.7 0.0
24/10:00am 17.8 19.6 17.3 97 0.3 N 4 9 2 5 1012.0 1012.0 0.0
24/09:47am 16.4 17.4 16.4 100 0.0 N 6 9 3 5 1012.0 1012.0 0.0
24/09:30am 15.6 16.7 15.6 100 0.0 NW 4 7 2 4 1011.9 1011.9 0.0
24/09:00am 14.6 14.9 14.6 100 0.0 NNW 6 11 3 6 1011.9 1011.9 0.0
24/08:32am 14.5 14.6 14.5 100 0.0 NW 7 11 4 6 1012.4 1012.4 0.0
24/08:30am 14.4 14.5 14.4 100 0.0 NW 7 11 4 6 1012.4 1012.4 0.0
24/08:00am 14.2 14.2 14.2 100 0.0 NNW 7 9 4 5 1012.4 1012.4 0.0
24/07:30am 13.7 14.9 13.7 100 0.0 CALM 0 0 0 0 1012.2 1012.2 0.0
24/07:24am 13.4 14.5 13.4 100 0.0 CALM 0 0 0 0 1012.1 1012.1 0.0
24/07:00am 11.6 12.0 11.4 99 0.1 CALM 0 0 0 0 1012.2 1012.2 0.0
24/06:54am 11.1 11.4 10.9 99 0.1 CALM 0 0 0 0 1012.2 1012.2 0.0
24/06:46am 10.8 11.0 10.6 99 0.1 CALM 0 0 0 0 1012.2 1012.2 0.0
24/06:30am 10.5 10.6 10.3 99 0.1 CALM 0 0 0 0 1012.2 1012.2 0.0
24/06:19am 10.2 10.3 10.0 99 0.1 CALM 0 0 0 0 1012.2 1012.2 0.0
24/06:00am 11.5 11.9 11.3 99 0.1 SSW 0 0 0 0 1012.1 1012.1 0.0
24/05:34am 10.9 11.1 10.7 99 0.1 CALM 0 0 0 0 1012.0 1012.0 0.0
24/05:30am 10.9 11.1 10.7 99 0.1 CALM 0 0 0 0 1012.0 1012.0 0.0
24/05:00am 10.3 10.3 9.8 97 0.3 CALM 0 0 0 0 1012.3 1012.3 0.0
24/04:56am 10.7 10.9 10.4 98 0.2 CALM 0 0 0 0 1012.3 1012.3 0.0
24/04:30am 12.4 12.3 12.2 99 0.1 SE 4 7 2 4 1012.4 1012.4 0.0
24/04:17am 12.3 11.8 12.1 99 0.1 SE 6 7 3 4 1012.4 1012.4 0.0
24/04:07am 12.5 12.0 12.2 98 0.2 ESE 6 7 3 4 1012.5 1012.5 0.0
24/04:01am 13.1 12.7 12.9 99 0.1 E 7 9 4 5 1012.5 1012.5 0.0
24/04:00am 13.0 12.5 12.7 98 0.2 E 7 9 4 5 1012.5 1012.5 0.0
24/03:30am 13.5 13.3 13.0 97 0.3 ESE 6 7 3 4 1012.8 1012.8 0.0
24/03:00am 14.0 13.0 13.5 97 0.3 ESE 11 13 6 7 1012.8 1012.8 0.0
24/02:30am 14.6 13.0 14.0 96 0.3 ESE 15 20 8 11 1013.1 1013.1 0.0
24/02:00am 14.8 12.8 14.0 95 0.4 SE 17 20 9 11 1013.6 1013.6 0.0
24/01:30am 15.0 13.0 13.9 93 0.6 SE 17 20 9 11 1014.3 1014.3 0.0
24/01:00am 15.2 12.8 13.9 92 0.7 SE 19 22 10 12 1014.6 1014.6 0.0
24/12:30am 15.4 13.4 13.9 91 0.8 ESE 17 20 9 11 1015.1 1015.1 0.0
24/12:01am 15.6 12.6 13.8 89 1.0 ESE 22 30 12 16 1015.2 1015.2 0.0
24/12:00am 15.6 12.6 13.8 89 1.0 ESE 22 30 12 16 1015.2 1015.2 0.0
 
Date/Time
EDT
Tmp

°C
App
Tmp
°C
Dew
Point
°C
Rel
Hum
%
Delta-T

°C
Wind Press
QNH
hPa
Press
MSL
hPa
Rain
since
9 am
mm
Dir
 
Spd
km/h
Gust
km/h
Spd
kts
Gust
kts
23/11:30pm 15.7 12.7 13.7 88 1.1 SE 22 30 12 16 1015.6 1015.6 0.0
23/11:22pm 15.8 12.8 13.6 87 1.2 SE 22 30 12 16 1015.7 1015.7 0.0
23/11:00pm 16.1 13.1 13.6 85 1.4 SE 22 30 12 16 1016.0 1016.0 0.0
23/10:30pm 16.3 12.9 13.6 84 1.5 SE 24 33 13 18 1016.3 1016.3 0.0
23/10:00pm 16.4 12.2 13.5 83 1.6 SE 28 35 15 19 1016.5 1016.5 0.0
23/09:30pm 16.4 12.6 13.5 83 1.6 SE 26 35 14 19 1016.6 1016.6 0.0
23/09:00pm 16.4 12.5 13.3 82 1.7 SE 26 35 14 19 1016.5 1016.5 0.0
23/08:30pm 16.5 14.1 13.8 84 1.5 ESE 19 22 10 12 1016.3 1016.3 0.0
23/08:00pm 16.9 13.5 13.6 81 1.9 ESE 24 30 13 16 1016.2 1016.2 0.0
23/07:30pm 17.3 15.0 14.0 81 1.9 ESE 19 24 10 13 1016.1 1016.1 0.0
23/07:00pm 17.8 15.9 14.1 79 2.1 SE 17 24 9 13 1016.2 1016.2 0.0
23/06:30pm 18.1 16.7 14.4 79 2.1 SE 15 22 8 12 1016.1 1016.1 0.0
23/06:00pm 17.4 16.2 14.1 81 1.9 SSW 13 17 7 9 1016.2 1016.2 0.0
23/05:30pm 17.5 15.4 13.6 78 2.2 SSW 17 20 9 11 1016.6 1016.6 0.0
23/05:00pm 17.2 15.3 13.1 77 2.3 S 15 20 8 11 1016.6 1016.6 0.0
23/04:30pm 17.5 14.6 13.0 75 2.5 S 20 24 11 13 1016.8 1016.8 0.0
23/04:00pm 18.1 15.4 13.0 72 2.9 S 19 22 10 12 1017.0 1017.0 0.0
23/03:30pm 17.7 16.2 13.0 74 2.6 SE 13 19 7 10 1017.5 1017.5 0.0
23/03:00pm 17.5 15.8 12.4 72 2.8 SE 13 19 7 10 1017.7 1017.7 0.0
23/02:30pm 17.3 14.8 12.2 72 2.8 ESE 17 22 9 12 1018.4 1018.4 0.0
23/02:00pm 17.2 14.1 12.3 73 2.7 ESE 20 24 11 13 1018.6 1018.6 0.0
23/01:30pm 16.9 14.0 12.2 74 2.6 SSE 19 24 10 13 1018.8 1018.8 0.0
23/01:00pm 16.3 13.7 11.9 75 2.4 SE 17 20 9 11 1019.1 1019.1 0.0
23/12:30pm 16.0 13.8 12.0 77 2.2 ESE 15 20 8 11 1019.5 1019.5 0.0
23/12:00pm 16.1 13.9 12.1 77 2.2 SE 15 20 8 11 1019.9 1019.9 0.0
23/11:51am 15.7 13.5 12.1 79 2.0 ESE 15 20 8 11 1019.9 1019.9 0.0
23/11:30am 15.6 13.6 11.6 77 2.2 SSE 13 19 7 10 1020.2 1020.2 0.0
23/11:00am 15.1 13.9 11.7 80 1.8 SE 9 13 5 7 1020.2 1020.2 0.0
23/10:59am 15.1 13.5 11.7 80 1.8 SE 11 15 6 8 1020.2 1020.2 0.0
23/10:30am 15.3 13.4 11.7 79 1.9 ESE 13 17 7 9 1020.6 1020.6 0.0
23/10:21am 15.2 13.3 11.8 80 1.8 SE 13 17 7 9 1020.7 1020.7 0.0
23/10:00am 14.9 12.9 11.5 80 1.8 SE 13 17 7 9 1020.8 1020.8 0.0
23/09:30am 14.4 12.9 11.9 85 1.3 S 11 15 6 8 1020.8 1020.8 0.0
23/09:00am 14.0 11.4 12.0 88 1.1 S 17 20 9 11 1020.7 1020.7 0.0
23/08:30am 14.4 11.3 11.7 84 1.4 S 19 24 10 13 1020.7 1020.7 0.0
23/08:00am 14.5 10.9 12.0 85 1.3 SSW 22 28 12 15 1020.4 1020.4 0.0
23/07:30am 14.6 12.0 12.1 85 1.4 S 17 20 9 11 1020.3 1020.3 0.0
23/07:00am 14.5 12.0 12.4 87 1.1 S 17 22 9 12 1020.1 1020.1 0.0
23/06:50am 14.6 12.9 12.5 87 1.1 S 13 19 7 10 1020.1 1020.1 0.0
23/06:30am 14.7 12.2 12.2 85 1.4 SSW 17 20 9 11 1019.8 1019.8 0.0
23/06:06am 14.6 12.0 12.1 85 1.4 SSW 17 20 9 11 1019.4 1019.4 0.0
23/06:00am 14.6 11.7 12.3 86 1.2 SSW 19 24 10 13 1019.4 1019.4 0.0
23/05:30am 14.6 11.2 12.6 88 1.1 SSW 22 28 12 15 1019.1 1019.1 0.0
23/05:00am 14.7 11.7 12.7 88 1.1 SSW 20 26 11 14 1018.6 1018.6 0.0
23/04:30am 14.8 12.0 13.2 90 0.9 SSW 20 24 11 13 1018.8 1018.8 0.0
23/04:00am 14.9 12.7 13.3 90 0.9 SSW 17 22 9 12 1019.0 1019.0 0.0
23/03:30am 14.9 13.0 13.1 89 1.0 SSW 15 20 8 11 1019.0 1019.0 0.0
23/03:00am 14.9 12.6 12.9 88 1.1 SSW 17 24 9 13 1019.3 1019.3 0.0
23/02:30am 14.9 12.9 12.8 87 1.2 SW 15 20 8 11 1019.1 1019.1 0.0
23/02:00am 14.9 12.2 12.8 87 1.2 SW 19 24 10 13 1019.3 1019.3 0.0
23/01:30am 14.9 12.0 12.9 88 1.1 SW 20 28 11 15 1019.3 1019.3 0.0
23/01:00am 14.8 11.6 13.0 89 1.0 SW 22 30 12 16 1019.4 1019.4 0.0
23/12:30am 14.5 12.3 13.2 92 0.7 SW 17 20 9 11 1019.3 1019.3 0.0
23/12:00am 14.8 11.3 13.3 91 0.8 SSW 24 32 13 17 1019.0 1019.0 0.0
 
Date/Time
EDT
Tmp

°C
App
Tmp
°C
Dew
Point
°C
Rel
Hum
%
Delta-T

°C
Wind Press
QNH
hPa
Press
MSL
hPa
Rain
since
9 am
mm
Dir
 
Spd
km/h
Gust
km/h
Spd
kts
Gust
kts
22/11:30pm 15.3 12.8 13.5 89 1.0 SSW 19 24 10 13 1018.6 1018.6 0.0
22/11:00pm 15.7 13.0 13.5 87 1.2 SSW 20 28 11 15 1018.0 1018.0 0.0
22/10:30pm 15.9 11.7 13.6 86 1.3 SSW 28 33 15 18 1018.4 1018.4 0.0
22/10:00pm 15.4 12.8 13.8 90 0.9 SSW 20 26 11 14 1018.4 1018.4 0.0
22/09:30pm 16.2 13.2 13.7 85 1.4 SSW 22 30 12 16 1018.1 1018.1 0.0
22/09:00pm 17.5 14.1 12.6 73 2.7 SSW 22 30 12 16 1017.9 1017.9 0.0
22/08:30pm 19.0 15.1 12.0 64 3.9 SSW 24 33 13 18 1016.8 1016.8 0.0
22/08:00pm 19.9 16.3 12.9 64 4.0 SSW 24 32 13 17 1015.9 1015.9 0.0
22/07:30pm 20.6 16.3 13.1 62 4.3 SSW 28 37 15 20 1015.4 1015.4 0.0
22/07:00pm 22.9 18.1 12.8 53 5.8 SSW 30 43 16 23 1014.6 1014.6 0.0
22/06:30pm 26.1 21.7 12.9 44 7.7 SSW 28 37 15 20 1014.0 1014.0 0.0
22/06:00pm 30.8 30.7 14.0 36 10.1 ESE 7 9 4 5 1013.7 1013.7 0.0
22/05:30pm 29.6 29.6 15.3 41 8.8 ESE 9 11 5 6 1013.6 1013.6 0.0
22/05:00pm 31.8 31.0 11.0 28 12.0 N 6 9 3 5 1013.7 1013.7 0.0
22/04:30pm 30.5 29.7 12.9 34 10.4 S 9 11 5 6 1014.2 1014.2 0.0
22/04:00pm 31.0 28.3 12.8 32 10.8 E 19 20 10 11 1014.2 1014.2 0.0
22/03:30pm 31.5 29.1 12.8 32 11.1 E 17 22 9 12 1014.4 1014.4 0.0
22/03:00pm 31.8 29.2 13.1 32 11.2 E 19 24 10 13 1014.6 1014.6 0.0
22/02:30pm 31.3 28.1 13.1 33 10.9 E 22 28 12 15 1014.9 1014.9 0.0
22/02:00pm 31.7 29.5 14.4 35 10.5 E 19 24 10 13 1015.2 1015.2 0.0
22/01:30pm 31.6 30.2 13.4 33 10.9 SE 13 26 7 14 1015.5 1015.5 0.0
22/01:00pm 32.5 30.5 8.7 23 13.3 NW 9 15 5 8 1015.7 1015.7 0.0
22/12:30pm 32.9 32.3 10.3 25 13.0 W 4 11 2 6 1016.2 1016.2 0.0
22/12:00pm 31.0 29.6 10.9 29 11.6 SW 9 13 5 7 1016.7 1016.7 0.0
22/11:30am 29.7 28.8 10.8 31 10.8 W 6 9 3 5 1017.3 1017.3 0.0
22/11:00am 28.8 28.0 11.8 35 9.8 WSW 7 11 4 6 1017.7 1017.7 0.0
22/10:30am 27.8 25.9 10.5 34 9.8 NNE 11 15 6 8 1018.2 1018.2 0.0
22/10:00am 26.0 23.4 10.6 38 8.6 NNE 15 24 8 13 1018.4 1018.4 0.0
22/09:30am 24.7 21.8 10.9 42 7.7 N 17 24 9 13 1018.5 1018.5 0.0
22/09:00am 22.9 20.3 11.9 50 6.2 NNE 17 26 9 14 1018.2 1018.2 0.0
22/08:30am 17.9 16.9 13.4 75 2.5 E 11 15 6 8 1018.5 1018.5 0.0
22/08:00am 14.6 13.3 11.4 81 1.7 E 9 11 5 6 1018.5 1018.5 0.0
22/07:30am 14.4 12.6 11.0 80 1.8 ENE 11 13 6 7 1018.6 1018.6 0.0
22/07:00am 11.9 9.9 10.1 89 0.9 NE 11 13 6 7 1018.6 1018.6 0.0
22/06:30am 10.7 9.4 9.8 94 0.5 NE 7 11 4 6 1018.8 1018.8 0.0
22/06:00am 9.3 7.8 8.4 94 0.4 N 6 6 3 3 1018.9 1018.9 0.0

Latest Capital City Observations: Canberra | Sydney | Melbourne | Brisbane | Adelaide | Perth | Hobart | Darwin

Other Formats:

Comma delimited format used in spreadsheet applications
http://www.bom.gov.au/fwo/IDV60901/IDV60901.94854.axf

JavaScript Object Notation format (JSON) in row-major order
http://www.bom.gov.au/fwo/IDV60901/IDV60901.94854.json